This is the latest recevied weather packets stored in our database for station/object EA3FHP. If no packets are shown the sender has not sent any weather packets the latest 10 day(s).
| Time | Temp. | Humidity | Pressure | Rain* | Wind** | Luminosity | Snow |
|---|---|---|---|---|---|---|---|
| 1787896803 | 21.11° C | 45% | 1017.9 hPa | 0 mm | - | - | - |
| 1787896203 | 20.56° C | 47% | 1017.9 hPa | 0 mm | - | - | - |
| 1787895603 | 21.11° C | 46% | 1017.7 hPa | 0 mm | - | - | - |
| 1787866804 | 22.78° C | 55% | 1015.4 hPa | 0 mm | - | - | - |
| 1787866204 | 23.89° C | 54% | 1015.9 hPa | 0 mm | - | - | - |
| 1787865605 | 23.89° C | 52% | 1015.9 hPa | 0 mm | - | - | - |
| 1787865003 | 23.89° C | 52% | 1016.2 hPa | 0 mm | - | - | - |
| 1787864404 | 24.44° C | 56% | 1015.8 hPa | 0 mm | - | - | - |
| 1787863803 | 24.44° C | 53% | 1015.8 hPa | 0 mm | - | - | - |
| 1787863203 | 24.44° C | 50% | 1015.5 hPa | 0 mm | - | - | - |
| 1787862603 | 25° C | 50% | 1015.4 hPa | 0 mm | - | - | - |
| 1787862004 | 25° C | 51% | 1015.3 hPa | 0 mm | - | - | - |
| 1787861403 | 25.56° C | 51% | 1015.5 hPa | 0 mm | - | - | - |
| 1787860805 | 25.56° C | 51% | 1015.4 hPa | 0 mm | - | - | - |
| 1787860203 | 25.56° C | 51% | 1015.2 hPa | 0 mm | - | - | - |
| 1787859603 | 25.56° C | 51% | 1014.1 hPa | 0 mm | - | - | - |
| 1787859003 | 25.56° C | 53% | 1014.5 hPa | 0 mm | - | - | - |
| 1787858403 | 25.56° C | 53% | 1014.4 hPa | 0 mm | - | - | - |
| 1787857803 | 25.56° C | 55% | 1014 hPa | 0 mm | - | - | - |
| 1787857203 | 26.11° C | 53% | 1014.5 hPa | 0 mm | - | - | - |
| 1787856603 | 26.11° C | 53% | 1013.9 hPa | 0 mm | - | - | - |
| 1787856003 | 26.11° C | 53% | 1014.5 hPa | 0 mm | - | - | - |
| 1787855405 | 26.67° C | 53% | 1014.2 hPa | 0 mm | - | - | - |
| 1787854804 | 26.67° C | 50% | 1014.1 hPa | 0 mm | - | - | - |
| 1787854203 | 26.67° C | 50% | 1013.8 hPa | 0 mm | - | - | - |
* Rain latest hour (hover to see other rain measurements)
** Current wind speed in m/s (hover to see current wind gust speed)